createdAt,value
2018-09-01T00:00:12.200Z,0
2018-09-01T00:01:12.013Z,0
2018-09-01T00:02:11.931Z,0
2018-09-01T00:03:12.449Z,0
2018-09-01T00:04:12.197Z,0
2018-09-01T00:05:12.393Z,0
2018-09-01T00:06:12.255Z,0
2018-09-01T00:07:12.187Z,0
2018-09-01T00:08:11.689Z,0
2018-09-01T00:09:11.948Z,0
2018-09-01T00:10:12.215Z,0
2018-09-01T00:11:12.709Z,0
2018-09-01T00:12:11.936Z,0
2018-09-01T00:13:11.693Z,0
2018-09-01T00:14:11.997Z,0
2018-09-01T00:15:12.192Z,0
2018-09-01T00:16:11.452Z,0
2018-09-01T00:17:11.967Z,0
2018-09-01T00:18:11.952Z,0
2018-09-01T00:19:11.690Z,0
2018-09-01T00:20:11.973Z,0
2018-09-01T00:21:12.201Z,0
2018-09-01T00:22:12.191Z,0
2018-09-01T00:23:12.447Z,0
2018-09-01T00:24:11.977Z,0
2018-09-01T00:25:12.333Z,0
2018-09-01T00:26:11.925Z,0
2018-09-01T00:27:12.194Z,0
2018-09-01T00:28:12.451Z,0
2018-09-01T00:29:12.190Z,0
2018-09-01T00:30:12.248Z,0
2018-09-01T00:31:11.929Z,0
2018-09-01T00:32:12.186Z,0
2018-09-01T00:33:11.929Z,0
2018-09-01T00:34:11.962Z,0
2018-09-01T00:35:11.975Z,0
2018-09-01T00:36:12.220Z,0
2018-09-01T00:37:12.249Z,0
2018-09-01T00:38:12.183Z,0
2018-09-01T00:39:11.919Z,0
2018-09-01T00:40:12.185Z,0
2018-09-01T00:41:11.897Z,0
2018-09-01T00:42:12.184Z,0
2018-09-01T00:43:11.906Z,0
2018-09-01T00:44:12.432Z,0
2018-09-01T00:45:11.952Z,0
2018-09-01T00:46:12.181Z,0
2018-09-01T00:47:12.457Z,0
2018-09-01T00:48:11.954Z,0
2018-09-01T00:49:11.908Z,0
2018-09-01T00:50:11.912Z,0
2018-09-01T00:51:11.663Z,0
2018-09-01T00:52:12.188Z,0
2018-09-01T00:53:12.426Z,0
2018-09-01T00:54:12.436Z,0
2018-09-01T00:55:12.203Z,0
2018-09-01T00:56:11.655Z,0
2018-09-01T00:57:12.699Z,0
2018-09-01T00:58:12.426Z,0
2018-09-01T00:59:11.644Z,0
2018-09-01T01:00:11.895Z,0
2018-09-01T01:01:12.160Z,0
2018-09-01T01:02:12.967Z,0
2018-09-01T01:03:12.161Z,0
2018-09-01T01:04:11.911Z,0
2018-09-01T01:05:11.630Z,0
2018-09-01T01:06:11.897Z,0
2018-09-01T01:07:12.168Z,0
2018-09-01T01:08:12.144Z,0
2018-09-01T01:09:12.435Z,0
2018-09-01T01:10:11.891Z,0
2018-09-01T01:11:11.909Z,0
2018-09-01T01:12:11.892Z,0
2018-09-01T01:13:12.440Z,0
2018-09-01T01:14:11.628Z,0
2018-09-01T01:15:12.416Z,0
2018-09-01T01:16:12.155Z,0
2018-09-01T01:17:12.148Z,0
2018-09-01T01:18:12.142Z,0
2018-09-01T01:19:11.891Z,0
2018-09-01T01:20:11.909Z,0
2018-09-01T01:21:12.434Z,0
2018-09-01T01:22:12.450Z,0
2018-09-01T01:23:12.472Z,0
2018-09-01T01:24:12.169Z,0
2018-09-01T01:25:11.953Z,0
2018-09-01T01:26:12.188Z,0
2018-09-01T01:27:11.943Z,0
2018-09-01T01:28:11.899Z,0
2018-09-01T01:29:12.158Z,0
2018-09-01T01:30:11.532Z,0
2018-09-01T01:31:11.875Z,0
2018-09-01T01:32:11.633Z,0
2018-09-01T01:33:13.254Z,0
2018-09-01T01:34:12.151Z,0
2018-09-01T01:35:12.197Z,0
2018-09-01T01:36:11.637Z,0
2018-09-01T01:37:11.633Z,0
2018-09-01T01:38:11.875Z,0
2018-09-01T01:39:12.152Z,0
2018-09-01T01:40:12.325Z,0
2018-09-01T01:41:11.886Z,0
2018-09-01T01:42:12.149Z,0
2018-09-01T01:43:11.628Z,0
2018-09-01T01:44:11.614Z,0
2018-09-01T01:45:11.838Z,0
2018-09-01T01:46:11.634Z,0
2018-09-01T01:47:11.879Z,0
2018-09-01T01:48:12.418Z,0
2018-09-01T01:49:11.663Z,0
2018-09-01T01:50:12.286Z,0
2018-09-01T01:51:11.881Z,0
2018-09-01T01:52:11.600Z,0
2018-09-01T01:53:12.117Z,0
2018-09-01T01:54:12.174Z,0
2018-09-01T01:55:11.840Z,0
2018-09-01T01:56:12.139Z,0
2018-09-01T01:57:11.857Z,0
2018-09-01T01:58:11.865Z,0
2018-09-01T01:59:11.860Z,0
2018-09-01T02:00:12.572Z,0
2018-09-01T02:01:11.603Z,0
2018-09-01T02:02:11.608Z,0
2018-09-01T02:03:12.010Z,0
2018-09-01T02:04:11.862Z,0
2018-09-01T02:05:11.933Z,0
2018-09-01T02:06:12.111Z,0
2018-09-01T02:07:12.120Z,0
2018-09-01T02:08:12.108Z,0
2018-09-01T02:09:12.116Z,0
2018-09-01T02:10:12.018Z,0
2018-09-01T02:11:12.348Z,0
2018-09-01T02:12:11.863Z,0
2018-09-01T02:13:11.592Z,0
2018-09-01T02:14:12.110Z,0
2018-09-01T02:15:11.970Z,0
2018-09-01T02:16:12.147Z,0
2018-09-01T02:17:12.381Z,0
2018-09-01T02:18:12.129Z,0
2018-09-01T02:19:11.843Z,0
2018-09-01T02:20:12.285Z,0
2018-09-01T02:21:12.110Z,0
2018-09-01T02:22:11.838Z,0
2018-09-01T02:23:11.861Z,0
2018-09-01T02:24:12.112Z,0
2018-09-01T02:25:11.791Z,0
2018-09-01T02:26:12.084Z,0
2018-09-01T02:27:12.353Z,0
2018-09-01T02:28:12.134Z,0
2018-09-01T02:29:12.015Z,0
2018-09-01T02:30:12.096Z,0
2018-09-01T02:31:12.099Z,0
2018-09-01T02:32:12.090Z,0
2018-09-01T02:33:14.748Z,0
2018-09-01T02:34:12.093Z,0
2018-09-01T02:35:11.978Z,0
2018-09-01T02:36:12.082Z,0
2018-09-01T02:37:12.354Z,0
2018-09-01T02:38:12.116Z,0
2018-09-01T02:39:12.368Z,0
2018-09-01T02:40:12.220Z,0
2018-09-01T02:41:12.104Z,0
2018-09-01T02:42:11.327Z,0
2018-09-01T02:43:12.168Z,0
2018-09-01T02:44:11.823Z,0
2018-09-01T02:45:12.590Z,0
2018-09-01T02:46:12.339Z,0
2018-09-01T02:47:11.552Z,0
2018-09-01T02:48:12.060Z,0
2018-09-01T02:49:12.333Z,0
2018-09-01T02:50:12.160Z,0
2018-09-01T02:51:11.838Z,0
2018-09-01T02:52:12.083Z,0
2018-09-01T02:53:12.071Z,0
2018-09-01T02:54:12.096Z,0
2018-09-01T02:55:12.573Z,0
2018-09-01T02:56:11.823Z,0
2018-09-01T02:57:12.342Z,0
2018-09-01T02:58:12.075Z,0
2018-09-01T02:59:12.051Z,0
2018-09-01T03:00:12.201Z,0
2018-09-01T03:01:12.329Z,0
2018-09-01T03:02:11.572Z,0
2018-09-01T03:03:12.312Z,0
2018-09-01T03:04:12.084Z,0
2018-09-01T03:05:12.441Z,0
2018-09-01T03:06:11.536Z,0
2018-09-01T03:07:12.375Z,0
2018-09-01T03:08:12.044Z,0
2018-09-01T03:09:11.526Z,0
2018-09-01T03:10:11.406Z,0
2018-09-01T03:11:11.776Z,0
2018-09-01T03:12:12.043Z,0
2018-09-01T03:13:12.044Z,0
2018-09-01T03:14:12.294Z,0
2018-09-01T03:15:12.182Z,0
2018-09-01T03:16:12.271Z,0
2018-09-01T03:17:12.294Z,0
2018-09-01T03:18:11.785Z,0
2018-09-01T03:19:11.776Z,0
2018-09-01T03:20:11.680Z,0
2018-09-01T03:21:11.499Z,0
2018-09-01T03:22:12.035Z,0
2018-09-01T03:23:11.757Z,0
2018-09-01T03:24:12.286Z,0
2018-09-01T03:25:12.114Z,0
2018-09-01T03:26:12.279Z,0
2018-09-01T03:27:11.759Z,0
2018-09-01T03:28:11.532Z,0
2018-09-01T03:29:11.490Z,0
2018-09-01T03:30:12.246Z,0
2018-09-01T03:31:12.283Z,0
2018-09-01T03:32:12.029Z,0
2018-09-01T03:33:12.076Z,0
2018-09-01T03:34:11.745Z,0
2018-09-01T03:35:11.884Z,0
2018-09-01T03:36:11.755Z,0
2018-09-01T03:37:12.010Z,0
2018-09-01T03:38:12.317Z,0
2018-09-01T03:39:11.506Z,0
2018-09-01T03:40:11.911Z,0
2018-09-01T03:41:12.265Z,0
2018-09-01T03:42:11.755Z,0
2018-09-01T03:43:11.491Z,0
2018-09-01T03:44:11.501Z,0
2018-09-01T03:45:12.299Z,0
2018-09-01T03:46:12.006Z,0
2018-09-01T03:47:11.746Z,0
2018-09-01T03:48:11.987Z,0
2018-09-01T03:49:11.724Z,0
2018-09-01T03:50:12.204Z,0
2018-09-01T03:51:12.281Z,0
2018-09-01T03:52:11.481Z,0
2018-09-01T03:53:12.228Z,0
2018-09-01T03:54:11.720Z,0
2018-09-01T03:55:12.383Z,0
2018-09-01T03:56:11.979Z,0
2018-09-01T03:57:11.734Z,0
2018-09-01T03:58:11.712Z,0
2018-09-01T03:59:11.712Z,0
2018-09-01T04:00:11.862Z,0
2018-09-01T04:01:11.448Z,0
2018-09-01T04:02:12.222Z,0
2018-09-01T04:03:11.976Z,0
2018-09-01T04:04:12.270Z,0
2018-09-01T04:05:11.803Z,0
2018-09-01T04:06:11.954Z,0
2018-09-01T04:07:11.963Z,0
2018-09-01T04:08:11.775Z,0
2018-09-01T04:09:13.047Z,0
2018-09-01T04:10:12.223Z,0
2018-09-01T04:11:11.457Z,0
2018-09-01T04:12:11.943Z,0
2018-09-01T04:13:11.440Z,0
2018-09-01T04:14:11.680Z,0
2018-09-01T04:15:11.729Z,0
2018-09-01T04:16:11.445Z,0
2018-09-01T04:17:11.693Z,0
2018-09-01T04:18:11.682Z,0
2018-09-01T04:19:11.950Z,0
2018-09-01T04:20:12.087Z,0
2018-09-01T04:21:11.939Z,0
2018-09-01T04:22:11.410Z,0
2018-09-01T04:23:11.955Z,0
2018-09-01T04:24:11.413Z,0
2018-09-01T04:25:11.696Z,0
2018-09-01T04:26:11.946Z,0
2018-09-01T04:27:11.927Z,0
2018-09-01T04:28:11.915Z,0
2018-09-01T04:29:11.953Z,0
2018-09-01T04:30:11.458Z,0
2018-09-01T04:31:11.940Z,0
2018-09-01T04:32:11.988Z,0
2018-09-01T04:33:11.679Z,0
2018-09-01T04:34:11.642Z,0
2018-09-01T04:35:11.800Z,0
2018-09-01T04:36:11.627Z,0
2018-09-01T04:37:12.145Z,0
2018-09-01T04:38:11.879Z,0
2018-09-01T04:39:11.696Z,5
2018-09-01T04:40:11.594Z,5
2018-09-01T04:41:11.673Z,5
2018-09-01T04:42:11.642Z,5
2018-09-01T04:43:11.893Z,5
2018-09-01T04:44:11.901Z,5
2018-09-01T04:45:11.726Z,5
2018-09-01T04:46:11.634Z,10
2018-09-01T04:47:12.341Z,10
2018-09-01T04:48:12.165Z,10
2018-09-01T04:49:12.163Z,10
2018-09-01T04:50:11.465Z,10
2018-09-01T04:51:11.643Z,15
2018-09-01T04:52:11.889Z,15
2018-09-01T04:53:11.640Z,15
2018-09-01T04:54:11.373Z,15
2018-09-01T04:55:11.939Z,20
2018-09-01T04:56:11.601Z,20
2018-09-01T04:57:12.144Z,20
2018-09-01T04:58:11.617Z,20
2018-09-01T04:59:12.151Z,25
2018-09-01T05:00:11.991Z,25
2018-09-01T05:01:12.759Z,25
2018-09-01T05:02:11.676Z,30
2018-09-01T05:03:11.629Z,30
2018-09-01T05:04:14.069Z,30
2018-09-01T05:05:11.362Z,35
2018-09-01T05:06:11.599Z,35
2018-09-01T05:07:11.852Z,35
2018-09-01T05:08:11.855Z,40
2018-09-01T05:09:11.596Z,40
2018-09-01T05:10:11.473Z,40
2018-09-01T05:11:11.843Z,45
2018-09-01T05:12:11.853Z,45
2018-09-01T05:13:11.602Z,45
2018-09-01T05:14:11.849Z,45
2018-09-01T05:15:11.720Z,50
2018-09-01T05:16:12.087Z,50
2018-09-01T05:17:12.097Z,50
2018-09-01T05:18:11.594Z,50
2018-09-01T05:19:11.071Z,50
2018-09-01T05:20:12.262Z,50
2018-09-01T05:21:11.827Z,55
2018-09-01T05:22:11.631Z,55
2018-09-01T05:23:11.580Z,55
2018-09-01T05:24:11.770Z,55
2018-09-01T05:25:11.931Z,55
2018-09-01T05:26:12.068Z,60
2018-09-01T05:27:11.568Z,60
2018-09-01T05:28:12.086Z,60
2018-09-01T05:29:11.827Z,60
2018-09-01T05:30:11.634Z,60
2018-09-01T05:31:11.618Z,60
2018-09-01T05:32:11.824Z,60
2018-09-01T05:33:11.853Z,60
2018-09-01T05:34:11.838Z,65
2018-09-01T05:35:11.915Z,65
2018-09-01T05:36:11.578Z,65
2018-09-01T05:37:11.808Z,65
2018-09-01T05:38:11.822Z,65
2018-09-01T05:39:11.557Z,65
2018-09-01T05:40:11.459Z,65
2018-09-01T05:41:11.557Z,65
2018-09-01T05:42:11.559Z,65
2018-09-01T05:43:11.541Z,65
2018-09-01T05:44:11.799Z,65
2018-09-01T05:45:11.386Z,65
2018-09-01T05:46:11.293Z,65
2018-09-01T05:47:11.030Z,65
2018-09-01T05:48:11.047Z,65
2018-09-01T05:49:11.540Z,65
2018-09-01T05:50:11.857Z,60
2018-09-01T05:51:11.540Z,65
2018-09-01T05:52:11.524Z,65
2018-09-01T05:53:11.788Z,65
2018-09-01T05:54:12.066Z,65
2018-09-01T05:55:12.103Z,65
2018-09-01T05:56:11.266Z,65
2018-09-01T05:57:11.792Z,65
2018-09-01T05:58:11.795Z,65
2018-09-01T05:59:11.795Z,65
2018-09-01T06:00:11.961Z,65
2018-09-01T06:01:11.275Z,65
2018-09-01T06:02:11.798Z,65
2018-09-01T06:03:11.795Z,65
2018-09-01T06:04:11.266Z,65
2018-09-01T06:05:13.096Z,65
2018-09-01T06:06:12.396Z,70
2018-09-01T06:07:11.532Z,70
2018-09-01T06:08:11.522Z,70
2018-09-01T06:09:11.767Z,75
2018-09-01T06:10:11.347Z,70
2018-09-01T06:11:11.257Z,75
2018-09-01T06:12:11.533Z,80
2018-09-01T06:13:11.552Z,80
2018-09-01T06:14:11.757Z,85
2018-09-01T06:15:11.578Z,95
2018-09-01T06:16:11.504Z,90
2018-09-01T06:17:11.750Z,95
2018-09-01T06:18:11.960Z,95
2018-09-01T06:19:12.323Z,95
2018-09-01T06:20:11.427Z,95
2018-09-01T06:21:11.502Z,100
2018-09-01T06:22:11.478Z,100
2018-09-01T06:23:11.757Z,100
2018-09-01T06:24:11.720Z,100
2018-09-01T06:25:11.628Z,95
2018-09-01T06:26:11.752Z,95
2018-09-01T06:27:11.487Z,95
2018-09-01T06:28:11.504Z,95
2018-09-01T06:29:12.021Z,95
2018-09-01T06:30:12.121Z,95
2018-09-01T06:31:12.028Z,95
2018-09-01T06:32:11.236Z,95
2018-09-01T06:33:11.698Z,95
2018-09-01T06:34:11.485Z,95
2018-09-01T06:35:13.510Z,95
2018-09-01T06:36:11.221Z,100
2018-09-01T06:37:11.221Z,100
2018-09-01T06:38:11.734Z,100
2018-09-01T06:39:11.738Z,110
2018-09-01T06:40:12.060Z,105
2018-09-01T06:41:11.213Z,110
2018-09-01T06:42:12.001Z,110
2018-09-01T06:43:12.480Z,110
2018-09-01T06:44:11.281Z,110
2018-09-01T06:45:11.993Z,110
2018-09-01T06:46:11.214Z,110
2018-09-01T06:47:11.522Z,115
2018-09-01T06:48:12.031Z,115
2018-09-01T06:49:11.486Z,120
2018-09-01T06:50:11.407Z,120
2018-09-01T06:51:11.464Z,120
2018-09-01T06:52:11.225Z,120
2018-09-01T06:53:11.974Z,120
2018-09-01T06:54:11.200Z,120
2018-09-01T06:55:11.543Z,125
2018-09-01T06:56:11.489Z,125
2018-09-01T06:57:11.984Z,130
2018-09-01T06:58:11.456Z,130
2018-09-01T06:59:11.711Z,135
2018-09-01T07:00:11.829Z,140
2018-09-01T07:01:11.767Z,145
2018-09-01T07:02:11.451Z,155
2018-09-01T07:03:11.194Z,150
2018-09-01T07:04:11.719Z,150
2018-09-01T07:05:12.908Z,150
2018-09-01T07:06:11.449Z,150
2018-09-01T07:07:11.969Z,150
2018-09-01T07:08:11.707Z,155
2018-09-01T07:09:11.452Z,155
2018-09-01T07:10:11.454Z,155
2018-09-01T07:11:11.712Z,155
2018-09-01T07:12:11.710Z,155
2018-09-01T07:13:11.453Z,155
2018-09-01T07:14:11.465Z,155
2018-09-01T07:15:11.245Z,155
2018-09-01T07:16:11.426Z,155
2018-09-01T07:17:11.980Z,155
2018-09-01T07:18:11.716Z,160
2018-09-01T07:19:11.694Z,160
2018-09-01T07:20:11.738Z,160
2018-09-01T07:21:11.709Z,165
2018-09-01T07:22:11.178Z,165
2018-09-01T07:23:11.681Z,165
2018-09-01T07:24:11.695Z,165
2018-09-01T07:25:11.508Z,165
2018-09-01T07:26:11.443Z,165
2018-09-01T07:27:11.936Z,170
2018-09-01T07:28:11.691Z,170
2018-09-01T07:29:11.438Z,170
2018-09-01T07:30:11.798Z,175
2018-09-01T07:31:14.089Z,175
2018-09-01T07:32:11.689Z,180
2018-09-01T07:33:11.940Z,185
2018-09-01T07:34:11.424Z,185
2018-09-01T07:35:11.777Z,190
2018-09-01T07:36:12.480Z,215
2018-09-01T07:37:11.705Z,210
2018-09-01T07:38:11.949Z,210
2018-09-01T07:39:11.681Z,215
2018-09-01T07:40:11.163Z,220
2018-09-01T07:41:11.706Z,230
2018-09-01T07:42:11.443Z,240
2018-09-01T07:43:11.791Z,250
2018-09-01T07:44:11.687Z,255
2018-09-01T07:45:11.218Z,265
2018-09-01T07:46:11.166Z,260
2018-09-01T07:47:11.048Z,270
2018-09-01T07:48:11.416Z,285
2018-09-01T07:49:11.965Z,280
2018-09-01T07:50:11.048Z,275
2018-09-01T07:51:11.166Z,275
2018-09-01T07:52:11.166Z,275
2018-09-01T07:53:11.468Z,275
2018-09-01T07:54:11.678Z,270
2018-09-01T07:55:11.978Z,285
2018-09-01T07:56:12.381Z,265
2018-09-01T07:57:11.436Z,265
2018-09-01T07:58:11.229Z,265
2018-09-01T07:59:11.438Z,295
2018-09-01T08:00:11.505Z,380
2018-09-01T08:01:11.199Z,315
2018-09-01T08:02:11.722Z,360
2018-09-01T08:03:11.732Z,360
2018-09-01T08:04:11.450Z,345
2018-09-01T08:05:11.535Z,335
2018-09-01T08:06:12.828Z,290
2018-09-01T08:07:11.467Z,245
2018-09-01T08:08:11.750Z,230
2018-09-01T08:09:11.975Z,225
2018-09-01T08:10:11.799Z,215
2018-09-01T08:11:11.732Z,205
2018-09-01T08:12:11.484Z,205
2018-09-01T08:13:12.024Z,200
2018-09-01T08:14:13.128Z,195
2018-09-01T08:15:11.326Z,190
2018-09-01T08:16:11.487Z,185
2018-09-01T08:17:11.223Z,180
2018-09-01T08:18:11.507Z,180
2018-09-01T08:19:11.252Z,185
2018-09-01T08:20:11.073Z,190
2018-09-01T08:21:12.029Z,195
2018-09-01T08:22:11.528Z,200
2018-09-01T08:23:11.774Z,210
2018-09-01T08:24:11.570Z,215
2018-09-01T08:25:12.183Z,220
2018-09-01T08:26:12.260Z,225
2018-09-01T08:27:11.767Z,235
2018-09-01T08:28:11.775Z,250
2018-09-01T08:29:11.510Z,260
2018-09-01T08:30:11.790Z,300
2018-09-01T08:31:11.522Z,285
2018-09-01T08:32:11.267Z,280
2018-09-01T08:33:12.037Z,285
2018-09-01T08:34:12.023Z,285
2018-09-01T08:35:11.923Z,285
2018-09-01T08:36:11.707Z,270
2018-09-01T08:37:11.781Z,280
2018-09-01T08:38:12.046Z,270
2018-09-01T08:39:11.553Z,290
2018-09-01T08:40:11.435Z,275
2018-09-01T08:41:11.805Z,300
2018-09-01T08:42:11.299Z,285
2018-09-01T08:43:11.801Z,235
2018-09-01T08:44:11.563Z,235
2018-09-01T08:45:12.043Z,240
2018-09-01T08:46:12.104Z,220
2018-09-01T08:47:11.803Z,225
2018-09-01T08:48:11.568Z,215
2018-09-01T08:49:11.328Z,210
2018-09-01T08:50:11.714Z,200
2018-09-01T08:51:11.574Z,200
2018-09-01T08:52:11.602Z,205
2018-09-01T08:53:11.585Z,210
2018-09-01T08:54:11.726Z,210
2018-09-01T08:55:12.255Z,220
2018-09-01T08:56:11.345Z,220
2018-09-01T08:57:11.352Z,210
2018-09-01T08:58:11.600Z,215
2018-09-01T08:59:11.641Z,215
2018-09-01T09:00:11.778Z,205
2018-09-01T09:01:11.596Z,200
2018-09-01T09:02:11.603Z,195
2018-09-01T09:03:11.606Z,195
2018-09-01T09:04:11.936Z,195
2018-09-01T09:05:11.766Z,205
2018-09-01T09:06:12.671Z,205
2018-09-01T09:07:11.591Z,210
2018-09-01T09:08:11.352Z,215
2018-09-01T09:09:11.858Z,225
2018-09-01T09:10:11.564Z,225
2018-09-01T09:11:11.634Z,235
2018-09-01T09:12:11.895Z,245
2018-09-01T09:13:11.354Z,245
2018-09-01T09:14:11.882Z,250
2018-09-01T09:15:11.687Z,265
2018-09-01T09:16:11.605Z,285
2018-09-01T09:17:11.340Z,275
2018-09-01T09:18:11.375Z,320
2018-09-01T09:19:11.368Z,320
2018-09-01T09:20:12.116Z,320
2018-09-01T09:21:11.692Z,270
2018-09-01T09:22:11.909Z,300
2018-09-01T09:23:12.189Z,275
2018-09-01T09:24:11.401Z,275
2018-09-01T09:25:12.051Z,280
2018-09-01T09:26:12.150Z,275
2018-09-01T09:27:11.641Z,290
2018-09-01T09:28:11.120Z,275
2018-09-01T09:29:11.148Z,310
2018-09-01T09:30:12.305Z,290
2018-09-01T09:31:11.658Z,280
2018-09-01T09:32:11.647Z,285
2018-09-01T09:33:11.703Z,300
2018-09-01T09:34:11.652Z,320
2018-09-01T09:35:11.842Z,265
2018-09-01T09:36:11.391Z,255
2018-09-01T09:37:11.913Z,265
2018-09-01T09:38:11.664Z,270
2018-09-01T09:39:11.669Z,245
2018-09-01T09:40:11.955Z,255
2018-09-01T09:41:12.218Z,275
2018-09-01T09:42:11.985Z,245
2018-09-01T09:43:11.921Z,245
2018-09-01T09:44:11.670Z,260
2018-09-01T09:45:11.482Z,270
2018-09-01T09:46:11.717Z,265
2018-09-01T09:47:12.218Z,260
2018-09-01T09:48:11.952Z,250
2018-09-01T09:49:11.964Z,240
2018-09-01T09:50:11.828Z,245
2018-09-01T09:51:12.212Z,225
2018-09-01T09:52:11.682Z,230
2018-09-01T09:53:11.924Z,215
2018-09-01T09:54:11.701Z,215
2018-09-01T09:55:12.186Z,215
2018-09-01T09:56:11.968Z,220
2018-09-01T09:57:12.236Z,215
2018-09-01T09:58:11.917Z,225
2018-09-01T09:59:11.981Z,210
2018-09-01T10:00:12.556Z,205
2018-09-01T10:01:11.990Z,200
2018-09-01T10:02:11.738Z,205
2018-09-01T10:03:11.471Z,210
2018-09-01T10:04:11.985Z,235
2018-09-01T10:05:11.758Z,245
2018-09-01T10:06:12.015Z,240
2018-09-01T10:07:11.730Z,250
2018-09-01T10:08:11.480Z,240
2018-09-01T10:09:11.747Z,270
2018-09-01T10:10:11.414Z,280
2018-09-01T10:11:12.333Z,265
2018-09-01T10:12:12.021Z,255
2018-09-01T10:13:11.741Z,250
2018-09-01T10:14:11.486Z,255
2018-09-01T10:15:12.144Z,260
2018-09-01T10:16:11.778Z,285
2018-09-01T10:17:11.546Z,270
2018-09-01T10:18:12.011Z,265
2018-09-01T10:19:11.743Z,265
2018-09-01T10:20:12.032Z,270
2018-09-01T10:21:12.046Z,290
2018-09-01T10:22:11.751Z,290
2018-09-01T10:23:12.030Z,285
2018-09-01T10:24:11.249Z,275
2018-09-01T10:25:11.428Z,275
2018-09-01T10:26:11.785Z,275
2018-09-01T10:27:12.638Z,275
2018-09-01T10:28:12.046Z,280
2018-09-01T10:29:11.529Z,280
2018-09-01T10:30:11.948Z,285
2018-09-01T10:31:11.516Z,265
2018-09-01T10:32:11.777Z,260
2018-09-01T10:33:11.543Z,275
2018-09-01T10:34:11.865Z,275
2018-09-01T10:35:11.644Z,310
2018-09-01T10:36:11.831Z,305
2018-09-01T10:37:12.100Z,260
2018-09-01T10:38:12.325Z,265
2018-09-01T10:39:11.791Z,270
2018-09-01T10:40:11.943Z,310
2018-09-01T10:41:11.363Z,325
2018-09-01T10:42:12.158Z,315
2018-09-01T10:43:11.816Z,285
2018-09-01T10:44:12.078Z,225
2018-09-01T10:45:11.986Z,210
2018-09-01T10:46:11.881Z,200
2018-09-01T10:47:11.817Z,200
2018-09-01T10:48:12.011Z,205
2018-09-01T10:49:11.825Z,210
2018-09-01T10:50:11.722Z,225
2018-09-01T10:51:12.101Z,230
2018-09-01T10:52:11.829Z,235
2018-09-01T10:53:11.824Z,235
2018-09-01T10:54:11.581Z,260
2018-09-01T10:55:11.855Z,220
2018-09-01T10:56:12.175Z,215
2018-09-01T10:57:11.860Z,210
2018-09-01T10:58:11.846Z,210
2018-09-01T10:59:13.689Z,230
2018-09-01T11:00:11.777Z,210
2018-09-01T11:01:11.603Z,215
2018-09-01T11:02:11.854Z,215
2018-09-01T11:03:11.971Z,240
2018-09-01T11:04:11.862Z,230
2018-09-01T11:05:12.169Z,210
2018-09-01T11:06:12.110Z,215
2018-09-01T11:07:12.686Z,215
2018-09-01T11:08:11.874Z,220
2018-09-01T11:09:11.630Z,235
2018-09-01T11:10:12.866Z,250
2018-09-01T11:11:12.204Z,260
2018-09-01T11:12:11.886Z,260
2018-09-01T11:13:11.614Z,260
2018-09-01T11:14:12.428Z,260
2018-09-01T11:15:12.256Z,260
2018-09-01T11:16:12.128Z,265
2018-09-01T11:17:12.148Z,265
2018-09-01T11:18:12.196Z,265
2018-09-01T11:19:12.456Z,265
2018-09-01T11:20:12.499Z,265
2018-09-01T11:21:12.403Z,265
2018-09-01T11:22:11.894Z,265
2018-09-01T11:23:12.428Z,265
2018-09-01T11:24:11.376Z,265
2018-09-01T11:25:12.875Z,275
2018-09-01T11:26:11.392Z,285
2018-09-01T11:27:12.186Z,285
2018-09-01T11:28:12.406Z,285
2018-09-01T11:29:11.910Z,275
2018-09-01T11:30:11.787Z,265
2018-09-01T11:31:12.186Z,250
2018-09-01T11:32:11.927Z,250
2018-09-01T11:33:11.921Z,250
2018-09-01T11:34:12.321Z,250
2018-09-01T11:35:12.645Z,250
2018-09-01T11:36:12.649Z,250
2018-09-01T11:37:12.508Z,240
2018-09-01T11:38:12.182Z,235
2018-09-01T11:39:12.209Z,240
2018-09-01T11:40:11.985Z,245
2018-09-01T11:41:11.736Z,250
2018-09-01T11:42:11.703Z,250
2018-09-01T11:43:13.598Z,255
2018-09-01T11:44:11.726Z,255
2018-09-01T11:45:12.759Z,250
2018-09-01T11:46:11.947Z,255
2018-09-01T11:47:12.211Z,265
2018-09-01T11:48:12.214Z,290
2018-09-01T11:49:12.224Z,305
2018-09-01T11:50:12.099Z,315
2018-09-01T11:51:12.017Z,310
2018-09-01T11:52:12.409Z,315
2018-09-01T11:53:11.951Z,325
2018-09-01T11:54:12.237Z,320
2018-09-01T11:55:12.165Z,330
2018-09-01T11:56:11.988Z,320
2018-09-01T11:57:12.492Z,315
2018-09-01T11:58:12.002Z,300
2018-09-01T11:59:12.245Z,285
2018-09-01T12:00:12.015Z,285
2018-09-01T12:01:12.391Z,280
2018-09-01T12:02:12.490Z,305
2018-09-01T12:03:12.515Z,275
2018-09-01T12:04:12.245Z,275
2018-09-01T12:05:12.566Z,275
2018-09-01T12:06:12.368Z,265
2018-09-01T12:07:13.323Z,255
2018-09-01T12:08:12.010Z,250
2018-09-01T12:09:12.091Z,255
2018-09-01T12:10:11.808Z,255
2018-09-01T12:11:12.536Z,260
2018-09-01T12:12:11.760Z,265
2018-09-01T12:13:11.753Z,270
2018-09-01T12:14:12.342Z,270
2018-09-01T12:15:11.500Z,275
2018-09-01T12:16:12.310Z,285
2018-09-01T12:17:12.277Z,285
2018-09-01T12:18:12.305Z,285
2018-09-01T12:19:12.037Z,285
2018-09-01T12:20:11.962Z,285
2018-09-01T12:21:11.863Z,280
2018-09-01T12:22:12.793Z,270
2018-09-01T12:23:12.315Z,260
2018-09-01T12:24:12.314Z,255
2018-09-01T12:25:11.910Z,260
2018-09-01T12:26:12.590Z,255
2018-09-01T12:27:12.313Z,265
2018-09-01T12:28:11.838Z,260
2018-09-01T12:29:12.079Z,260
2018-09-01T12:30:12.570Z,265
2018-09-01T12:31:12.318Z,275
2018-09-01T12:32:12.333Z,285
2018-09-01T12:33:11.849Z,295
2018-09-01T12:34:12.357Z,305
2018-09-01T12:35:11.934Z,310
2018-09-01T12:36:12.490Z,310
2018-09-01T12:37:12.348Z,310
2018-09-01T12:38:12.305Z,315
2018-09-01T12:39:12.325Z,320
2018-09-01T12:40:12.160Z,320
2018-09-01T12:41:12.594Z,310
2018-09-01T12:42:12.909Z,305
2018-09-01T12:43:12.618Z,300
2018-09-01T12:44:12.359Z,290
2018-09-01T12:45:12.135Z,285
2018-09-01T12:46:12.359Z,280
2018-09-01T12:47:12.112Z,275
2018-09-01T12:48:12.371Z,270
2018-09-01T12:49:12.122Z,280
2018-09-01T12:50:11.950Z,300
2018-09-01T12:51:12.132Z,325
2018-09-01T12:52:12.139Z,320
2018-09-01T12:53:13.126Z,295
2018-09-01T12:54:12.388Z,295
2018-09-01T12:55:12.871Z,295
2018-09-01T12:56:12.367Z,290
2018-09-01T12:57:11.896Z,285
2018-09-01T12:58:12.128Z,280
2018-09-01T12:59:12.370Z,270
2018-09-01T13:00:11.912Z,255
2018-09-01T13:01:12.170Z,245
2018-09-01T13:02:12.151Z,235
2018-09-01T13:03:12.466Z,230
2018-09-01T13:04:11.647Z,230
2018-09-01T13:05:12.769Z,230
2018-09-01T13:06:12.204Z,235
2018-09-01T13:07:12.153Z,240
2018-09-01T13:08:12.776Z,240
2018-09-01T13:09:11.918Z,240
2018-09-01T13:10:12.183Z,235
2018-09-01T13:11:12.682Z,235
2018-09-01T13:12:12.436Z,235
2018-09-01T13:13:12.704Z,240
2018-09-01T13:14:12.186Z,245
2018-09-01T13:15:12.180Z,255
2018-09-01T13:16:12.432Z,255
2018-09-01T13:17:12.428Z,255
2018-09-01T13:18:12.488Z,255
2018-09-01T13:19:12.449Z,255
2018-09-01T13:20:11.963Z,255
2018-09-01T13:21:12.438Z,250
2018-09-01T13:22:12.482Z,250
2018-09-01T13:23:12.793Z,250
2018-09-01T13:24:12.206Z,250
2018-09-01T13:25:12.604Z,250
2018-09-01T13:26:16.477Z,245
2018-09-01T13:27:12.463Z,235
2018-09-01T13:28:12.214Z,230
2018-09-01T13:29:11.699Z,220
2018-09-01T13:30:12.509Z,220
2018-09-01T13:31:12.741Z,220
2018-09-01T13:32:12.224Z,225
2018-09-01T13:33:12.466Z,230
2018-09-01T13:34:12.774Z,235
2018-09-01T13:35:12.544Z,245
2018-09-01T13:36:12.477Z,245
2018-09-01T13:37:12.478Z,245
2018-09-01T13:38:12.771Z,245
2018-09-01T13:39:12.609Z,240
2018-09-01T13:40:12.849Z,235
2018-09-01T13:41:11.977Z,240
2018-09-01T13:42:12.243Z,240
2018-09-01T13:43:12.548Z,240
2018-09-01T13:44:12.578Z,240
2018-09-01T13:45:11.782Z,245
2018-09-01T13:46:12.587Z,235
2018-09-01T13:47:11.999Z,235
2018-09-01T13:48:12.516Z,230
2018-09-01T13:49:12.539Z,230
2018-09-01T13:50:12.818Z,225
2018-09-01T13:51:12.513Z,225
2018-09-01T13:52:12.008Z,225
2018-09-01T13:53:12.558Z,235
2018-09-01T13:54:12.282Z,235
2018-09-01T13:55:12.630Z,240
2018-09-01T13:56:12.281Z,240
2018-09-01T13:57:12.640Z,235
2018-09-01T13:58:12.805Z,225
2018-09-01T13:59:12.557Z,220
2018-09-01T14:00:12.287Z,225
2018-09-01T14:01:12.567Z,225
2018-09-01T14:02:12.287Z,235
2018-09-01T14:03:12.550Z,240
2018-09-01T14:04:12.548Z,255
2018-09-01T14:05:12.313Z,260
2018-09-01T14:06:12.423Z,270
2018-09-01T14:07:12.316Z,280
2018-09-01T14:08:12.563Z,285
2018-09-01T14:09:12.322Z,290